createdAt,value
2018-11-02T00:01:03.161Z,11.83
2018-11-02T00:03:32.656Z,12.23
2018-11-02T00:06:01.971Z,11.93
2018-11-02T00:08:31.184Z,7.83
2018-11-02T00:11:00.599Z,11.17
2018-11-02T00:13:29.875Z,8.67
2018-11-02T00:15:59.116Z,8.90
2018-11-02T00:18:28.368Z,12.30
2018-11-02T00:20:57.615Z,8.77
2018-11-02T00:23:26.937Z,10.80
2018-11-02T00:25:56.296Z,9.77
2018-11-02T00:28:25.596Z,9.10
2018-11-02T00:30:54.776Z,9.33
2018-11-02T00:33:24.116Z,7.97
2018-11-02T00:35:53.456Z,10.73
2018-11-02T00:38:22.775Z,10.77
2018-11-02T00:40:52.096Z,10.07
2018-11-02T00:43:21.353Z,10.20
2018-11-02T00:45:50.623Z,10.20
2018-11-02T00:48:19.936Z,9.90
2018-11-02T00:50:49.253Z,8.97
2018-11-02T00:53:18.536Z,8.23
2018-11-02T00:55:47.757Z,10.70
2018-11-02T00:58:16.955Z,8.97
2018-11-02T01:00:46.536Z,10.03
2018-11-02T01:03:15.876Z,9.90
2018-11-02T01:05:45.137Z,11.57
2018-11-02T01:08:14.499Z,13.70
2018-11-02T01:10:43.875Z,9.80
2018-11-02T01:13:13.175Z,10.50
2018-11-02T01:15:42.356Z,8.93
2018-11-02T01:18:11.655Z,9.87
2018-11-02T01:20:40.955Z,13.80
2018-11-02T01:23:10.495Z,10.53
2018-11-02T01:25:39.716Z,9.43
2018-11-02T01:28:08.957Z,9.63
2018-11-02T01:30:38.229Z,10.97
2018-11-02T01:33:07.476Z,10.10
2018-11-02T01:35:36.636Z,8.70
2018-11-02T01:38:06.216Z,9.83
2018-11-02T01:40:35.423Z,9.13
2018-11-02T01:43:05.561Z,10.90
2018-11-02T01:45:34.856Z,9.00
2018-11-02T01:48:04.237Z,8.90
2018-11-02T01:50:33.416Z,9.30
2018-11-02T01:53:02.687Z,12.17
2018-11-02T01:55:31.935Z,12.87
2018-11-02T01:58:01.176Z,10.30
2018-11-02T02:00:30.356Z,10.13
2018-11-02T02:02:59.696Z,9.97
2018-11-02T02:05:28.936Z,11.47
2018-11-02T02:07:58.336Z,9.27
2018-11-02T02:10:27.676Z,11.70
2018-11-02T02:12:56.920Z,12.27
2018-11-02T02:15:26.175Z,12.90
2018-11-02T02:17:55.457Z,10.23
2018-11-02T02:20:25.091Z,13.33
2018-11-02T02:22:54.337Z,9.07
2018-11-02T02:25:23.595Z,10.00
2018-11-02T02:27:53.178Z,11.87
2018-11-02T02:30:22.397Z,10.83
2018-11-02T02:32:51.596Z,10.47
2018-11-02T02:35:20.858Z,11.40
2018-11-02T02:37:50.031Z,12.73
2018-11-02T02:40:19.275Z,10.90
2018-11-02T02:42:48.575Z,9.97
2018-11-02T02:45:17.796Z,9.60
2018-11-02T02:47:47.036Z,14.30
2018-11-02T02:50:16.261Z,9.90
2018-11-02T02:52:52.255Z,11.13
2018-11-02T02:55:21.708Z,10.27
2018-11-02T02:57:51.002Z,11.90
2018-11-02T03:00:20.257Z,12.07
2018-11-02T03:02:49.540Z,9.17
2018-11-02T03:05:18.817Z,13.27
2018-11-02T03:07:48.475Z,13.93
2018-11-02T03:10:17.844Z,11.50
2018-11-02T03:12:47.135Z,11.43
2018-11-02T03:15:16.537Z,13.07
2018-11-02T03:17:46.177Z,12.30
2018-11-02T03:20:15.435Z,13.37
2018-11-02T03:22:44.751Z,9.87
2018-11-02T03:25:13.916Z,9.60
2018-11-02T03:27:43.143Z,9.67
2018-11-02T03:30:12.576Z,9.83
2018-11-02T03:32:42.408Z,11.80
2018-11-02T03:35:11.699Z,11.10
2018-11-02T03:37:40.935Z,13.17
2018-11-02T03:40:11.355Z,12.77
2018-11-02T03:42:40.915Z,10.43
2018-11-02T03:45:10.235Z,13.70
2018-11-02T03:47:39.487Z,10.97
2018-11-02T03:50:10.555Z,11.63
2018-11-02T03:52:40.510Z,11.10
2018-11-02T03:55:09.722Z,13.00
2018-11-02T03:57:38.902Z,11.77
2018-11-02T04:00:10.075Z,10.33
2018-11-02T04:02:39.835Z,11.70
2018-11-02T04:05:10.022Z,15.07
2018-11-02T04:07:39.280Z,12.77
2018-11-02T04:10:10.621Z,12.63
2018-11-02T04:12:40.515Z,13.37
2018-11-02T04:15:09.914Z,13.43
2018-11-02T04:17:39.175Z,11.60
2018-11-02T04:20:09.835Z,11.87
2018-11-02T04:22:39.096Z,13.33
2018-11-02T04:25:08.515Z,16.10
2018-11-02T04:27:37.735Z,14.33
2018-11-02T04:30:08.315Z,15.80
2018-11-02T04:32:37.516Z,13.00
2018-11-02T04:35:08.195Z,12.77
2018-11-02T04:37:37.515Z,11.80
2018-11-02T04:40:07.657Z,16.63
2018-11-02T04:42:37.055Z,11.03
2018-11-02T04:45:12.937Z,11.20
2018-11-02T04:47:42.175Z,14.80
2018-11-02T04:50:11.455Z,12.77
2018-11-02T04:52:40.855Z,10.87
2018-11-02T04:55:10.054Z,12.00
2018-11-02T04:57:39.335Z,11.73
2018-11-02T05:00:10.196Z,12.97
2018-11-02T05:02:39.655Z,12.47
2018-11-02T05:05:08.956Z,11.77
2018-11-02T05:07:38.235Z,15.07
2018-11-02T05:10:08.695Z,13.43
2018-11-02T05:12:38.115Z,15.27
2018-11-02T05:15:07.435Z,15.40
2018-11-02T05:17:36.696Z,14.67
2018-11-02T05:20:08.196Z,12.77
2018-11-02T05:22:37.495Z,12.67
2018-11-02T05:25:08.218Z,12.47
2018-11-02T05:27:37.895Z,20.87
2018-11-02T05:30:08.757Z,12.87
2018-11-02T05:32:37.996Z,13.60
2018-11-02T05:35:07.315Z,14.50
2018-11-02T05:37:36.635Z,15.60
2018-11-02T05:40:07.678Z,13.63
2018-11-02T05:42:37.175Z,15.13
2018-11-02T05:45:07.096Z,11.80
2018-11-02T05:47:36.360Z,12.87
2018-11-02T05:50:05.936Z,13.93
2018-11-02T05:52:35.456Z,13.37
2018-11-02T05:55:06.292Z,15.70
2018-11-02T05:57:35.776Z,13.97
2018-11-02T06:00:05.855Z,13.90
2018-11-02T06:02:35.375Z,13.70
2018-11-02T06:05:05.275Z,13.07
2018-11-02T06:07:34.535Z,15.27
2018-11-02T06:10:03.856Z,12.03
2018-11-02T06:12:33.165Z,12.63
2018-11-02T06:15:02.536Z,12.53
2018-11-02T06:17:31.695Z,11.83
2018-11-02T06:20:01.075Z,11.80
2018-11-02T06:22:30.373Z,12.40
2018-11-02T06:24:59.691Z,13.60
2018-11-02T06:27:29.297Z,13.83
2018-11-02T06:29:58.695Z,10.33
2018-11-02T06:32:27.981Z,10.40
2018-11-02T06:34:57.235Z,12.07
2018-11-02T06:37:26.455Z,10.63
2018-11-02T06:39:55.716Z,13.93
2018-11-02T06:42:25.016Z,15.50
2018-11-02T06:44:54.380Z,14.13
2018-11-02T06:47:23.675Z,12.20
2018-11-02T06:49:52.975Z,12.10
2018-11-02T06:52:22.215Z,11.33
2018-11-02T06:54:51.575Z,13.00
2018-11-02T06:57:20.755Z,11.33
2018-11-02T06:59:50.219Z,10.83
2018-11-02T07:02:19.416Z,11.00
2018-11-02T07:04:48.655Z,17.83
2018-11-02T07:07:17.997Z,11.33
2018-11-02T07:09:47.235Z,11.63
2018-11-02T07:12:16.594Z,15.40
2018-11-02T07:14:45.855Z,9.63
2018-11-02T07:17:15.195Z,11.00
2018-11-02T07:19:44.455Z,13.90
2018-11-02T07:22:13.955Z,11.13
2018-11-02T07:24:43.213Z,12.13
2018-11-02T07:27:12.813Z,9.70
2018-11-02T07:29:42.132Z,11.70
2018-11-02T07:32:11.355Z,12.73
2018-11-02T07:34:40.615Z,13.50
2018-11-02T07:37:09.895Z,9.97
2018-11-02T07:39:39.132Z,14.80
2018-11-02T07:42:08.895Z,13.90
2018-11-02T07:44:38.216Z,10.90
2018-11-02T07:47:07.976Z,10.90
2018-11-02T07:49:37.410Z,11.83
2018-11-02T07:52:06.969Z,12.27
2018-11-02T07:54:36.270Z,12.73
2018-11-02T07:57:05.980Z,11.83
2018-11-02T07:59:35.269Z,14.13
2018-11-02T08:02:05.073Z,11.67
2018-11-02T08:04:34.343Z,10.77
2018-11-02T08:07:03.592Z,13.63
2018-11-02T08:09:32.817Z,12.87
2018-11-02T08:12:02.462Z,11.63
2018-11-02T08:14:31.762Z,11.47
2018-11-02T08:17:01.001Z,13.97
2018-11-02T08:19:30.271Z,15.77
2018-11-02T08:21:59.549Z,20.20
2018-11-02T08:24:29.193Z,22.27
2018-11-02T08:26:58.470Z,19.37
2018-11-02T08:29:28.030Z,16.83
2018-11-02T08:31:57.237Z,14.83
2018-11-02T08:34:26.509Z,17.90
2018-11-02T08:36:55.789Z,18.77
2018-11-02T08:39:25.506Z,15.97
2018-11-02T08:41:54.789Z,14.97
2018-11-02T08:44:24.009Z,13.80
2018-11-02T08:46:53.309Z,14.17
2018-11-02T08:49:22.610Z,14.47
2018-11-02T08:51:51.910Z,16.60
2018-11-02T08:54:21.278Z,11.60
2018-11-02T08:56:50.722Z,11.30
2018-11-02T08:59:19.968Z,11.57
2018-11-02T09:01:49.267Z,17.67
2018-11-02T09:04:18.510Z,14.73
2018-11-02T09:06:47.871Z,12.03
2018-11-02T09:09:17.087Z,10.70
2018-11-02T09:11:46.424Z,12.53
2018-11-02T09:14:15.684Z,14.53
2018-11-02T09:16:45.024Z,15.03
2018-11-02T09:19:14.376Z,12.50
2018-11-02T09:21:43.726Z,13.17
2018-11-02T09:24:13.384Z,13.27
2018-11-02T09:26:42.824Z,10.63
2018-11-02T09:29:12.180Z,14.30
2018-11-02T09:31:41.511Z,14.83
2018-11-02T09:34:10.684Z,12.27
2018-11-02T09:36:40.045Z,13.50
2018-11-02T09:39:11.563Z,15.30
2018-11-02T09:41:41.044Z,12.53
2018-11-02T09:44:10.267Z,12.17
2018-11-02T09:46:39.585Z,10.53
2018-11-02T09:49:08.964Z,12.97
2018-11-02T09:51:38.582Z,12.57
2018-11-02T09:54:07.824Z,12.27
2018-11-02T09:56:37.105Z,13.47
2018-11-02T09:59:06.420Z,14.57
2018-11-02T10:01:35.800Z,13.23
2018-11-02T10:04:05.140Z,12.00
2018-11-02T10:06:34.439Z,11.23
2018-11-02T10:09:04.533Z,15.23
2018-11-02T10:11:33.819Z,14.10
2018-11-02T10:14:03.215Z,14.90
2018-11-02T10:16:32.600Z,12.10
2018-11-02T10:19:01.862Z,12.87
2018-11-02T10:21:31.141Z,13.73
2018-11-02T10:24:00.585Z,13.37
2018-11-02T10:26:30.075Z,14.27
2018-11-02T10:28:59.580Z,16.73
2018-11-02T10:31:29.027Z,11.10
2018-11-02T10:33:58.602Z,12.03
2018-11-02T10:36:28.199Z,13.93
2018-11-02T10:38:58.200Z,18.20
2018-11-02T10:41:35.400Z,12.87
2018-11-02T10:44:13.302Z,12.87
2018-11-02T10:46:43.205Z,13.90
2018-11-02T10:49:12.501Z,14.73
2018-11-02T10:51:41.814Z,11.97
2018-11-02T10:54:11.104Z,11.77
2018-11-02T10:56:40.674Z,12.50
2018-11-02T10:59:09.954Z,11.03
2018-11-02T11:01:44.653Z,10.23
2018-11-02T11:04:13.993Z,14.77
2018-11-02T11:06:43.249Z,12.63
2018-11-02T11:09:13.673Z,13.57
2018-11-02T11:11:43.117Z,12.17
2018-11-02T11:14:12.804Z,12.63
2018-11-02T11:16:42.156Z,13.07
2018-11-02T11:19:11.537Z,13.17
2018-11-02T11:21:41.733Z,10.37
2018-11-02T11:24:11.056Z,13.03
2018-11-02T11:26:40.333Z,12.90
2018-11-02T11:29:09.923Z,11.47
2018-11-02T11:31:39.241Z,11.97
2018-11-02T11:34:08.993Z,9.77
2018-11-02T11:36:38.330Z,14.53
2018-11-02T11:39:11.533Z,13.00
2018-11-02T11:41:40.878Z,12.73
2018-11-02T11:44:10.292Z,12.00
2018-11-02T11:46:39.693Z,14.73
2018-11-02T11:49:09.744Z,13.37
2018-11-02T11:51:39.153Z,13.03
2018-11-02T11:54:08.484Z,13.63
2018-11-02T11:56:37.831Z,13.40
2018-11-02T11:59:07.223Z,10.83
2018-11-02T12:01:36.507Z,12.23
2018-11-02T12:04:06.448Z,14.70
2018-11-02T12:06:35.725Z,12.63
2018-11-02T12:09:06.222Z,11.67
2018-11-02T12:11:35.490Z,12.70
2018-11-02T12:14:05.287Z,12.90
2018-11-02T12:16:34.568Z,12.10
2018-11-02T12:19:04.208Z,12.33
2018-11-02T12:21:33.608Z,12.70
2018-11-02T12:24:02.928Z,11.00
2018-11-02T12:26:32.147Z,13.20
2018-11-02T12:29:01.463Z,16.87
2018-11-02T12:31:30.687Z,11.43
2018-11-02T12:33:59.968Z,12.37
2018-11-02T12:36:29.487Z,14.23
2018-11-02T12:38:59.067Z,12.50
2018-11-02T12:41:28.347Z,15.37
2018-11-02T12:43:57.856Z,13.73
2018-11-02T12:46:26.986Z,11.27
2018-11-02T12:48:56.383Z,11.67
2018-11-02T12:51:25.549Z,8.97
2018-11-02T12:53:54.839Z,11.80
2018-11-02T12:56:24.159Z,12.27
2018-11-02T12:58:53.447Z,13.23
2018-11-02T13:01:22.808Z,10.33
2018-11-02T13:03:52.139Z,16.30
2018-11-02T13:06:21.447Z,12.80
2018-11-02T13:08:50.788Z,11.43
2018-11-02T13:11:20.190Z,11.20
2018-11-02T13:13:49.427Z,13.23
2018-11-02T13:16:18.748Z,14.80
2018-11-02T13:18:48.260Z,13.70
2018-11-02T13:21:17.464Z,13.07
2018-11-02T13:23:46.727Z,12.20
2018-11-02T13:26:15.996Z,13.13
2018-11-02T13:28:45.304Z,12.43
2018-11-02T13:31:14.555Z,12.40
2018-11-02T13:33:43.848Z,18.53
2018-11-02T13:36:13.229Z,11.93
2018-11-02T13:38:42.708Z,12.83
2018-11-02T13:41:12.009Z,15.60
2018-11-02T13:43:41.333Z,13.47
2018-11-02T13:46:10.987Z,12.20
2018-11-02T13:48:40.308Z,15.67
2018-11-02T13:51:09.627Z,14.03
2018-11-02T13:53:38.930Z,13.90
2018-11-02T13:56:08.207Z,12.60
2018-11-02T13:58:37.467Z,13.40
2018-11-02T14:01:06.985Z,14.53
2018-11-02T14:03:36.288Z,12.63
2018-11-02T14:06:05.747Z,12.90
2018-11-02T14:08:35.028Z,16.13
2018-11-02T14:11:04.708Z,13.10
2018-11-02T14:13:33.947Z,13.33
2018-11-02T14:16:03.248Z,14.67
2018-11-02T14:18:32.631Z,11.10
2018-11-02T14:21:01.868Z,14.27
2018-11-02T14:23:31.247Z,12.63
2018-11-02T14:26:00.567Z,12.60
2018-11-02T14:28:29.908Z,13.00
2018-11-02T14:30:59.274Z,13.77
2018-11-02T14:33:28.468Z,14.33
2018-11-02T14:35:57.747Z,14.20
2018-11-02T14:38:27.048Z,14.93
2018-11-02T14:40:56.420Z,17.67
2018-11-02T14:43:25.761Z,11.97
2018-11-02T14:45:55.161Z,13.87
2018-11-02T14:48:24.500Z,13.03
2018-11-02T14:50:54.062Z,13.03
2018-11-02T14:53:23.366Z,14.00
2018-11-02T14:55:52.621Z,14.90
2018-11-02T14:58:21.966Z,12.73
2018-11-02T15:00:52.107Z,15.60
2018-11-02T15:03:21.425Z,15.07
2018-11-02T15:05:51.127Z,15.37
2018-11-02T15:08:20.508Z,16.77
2018-11-02T15:10:50.055Z,14.97
2018-11-02T15:13:19.385Z,15.60
2018-11-02T15:15:48.765Z,12.30
2018-11-02T15:18:18.019Z,20.67
2018-11-02T15:20:47.266Z,14.27
2018-11-02T15:23:16.545Z,15.20
2018-11-02T15:25:45.885Z,14.67
2018-11-02T15:28:15.165Z,15.67
2018-11-02T15:30:44.416Z,12.17
2018-11-02T15:33:13.726Z,17.77
2018-11-02T15:35:43.006Z,17.83
2018-11-02T15:38:12.301Z,16.23
2018-11-02T15:40:41.853Z,16.77
2018-11-02T15:43:11.184Z,17.33
2018-11-02T15:45:40.745Z,17.33
2018-11-02T15:48:10.038Z,18.37
2018-11-02T15:50:39.366Z,15.53
2018-11-02T15:53:08.809Z,17.40
2018-11-02T15:55:38.181Z,17.10
2018-11-02T15:58:07.586Z,18.77
2018-11-02T16:00:37.365Z,17.53
2018-11-02T16:03:06.864Z,16.47
2018-11-02T16:05:36.157Z,17.13
2018-11-02T16:08:05.699Z,16.23
2018-11-02T16:10:37.178Z,22.83
2018-11-02T16:13:06.536Z,19.80
2018-11-02T16:15:35.850Z,21.13
2018-11-02T16:18:05.636Z,17.00
2018-11-02T16:20:35.014Z,16.93
2018-11-02T16:23:04.376Z,19.37
2018-11-02T16:25:33.712Z,16.53
2018-11-02T16:28:03.017Z,23.00
2018-11-02T16:30:32.436Z,18.13
2018-11-02T16:33:01.737Z,20.17
2018-11-02T16:35:31.079Z,19.87
2018-11-02T16:38:00.457Z,18.93
2018-11-02T16:40:29.897Z,20.13
2018-11-02T16:42:59.299Z,21.37
2018-11-02T16:45:28.556Z,20.30
2018-11-02T16:47:57.996Z,18.27
2018-11-02T16:50:27.338Z,17.67
2018-11-02T16:52:56.686Z,18.93
2018-11-02T16:55:26.042Z,19.20
2018-11-02T16:57:55.512Z,17.87
2018-11-02T17:00:24.749Z,18.90
2018-11-02T17:02:54.048Z,17.17
2018-11-02T17:05:23.387Z,19.60
2018-11-02T17:07:53.246Z,19.23
2018-11-02T17:10:22.712Z,19.20
2018-11-02T17:12:52.088Z,18.30
2018-11-02T17:15:21.449Z,18.97
2018-11-02T17:17:50.779Z,21.37
2018-11-02T17:20:20.107Z,18.03
2018-11-02T17:22:49.467Z,20.00
2018-11-02T17:25:18.770Z,17.87
2018-11-02T17:27:48.267Z,21.73
2018-11-02T17:30:18.911Z,23.20
2018-11-02T17:32:48.347Z,21.10
2018-11-02T17:35:17.707Z,21.00
2018-11-02T17:37:47.080Z,19.67
2018-11-02T17:40:16.449Z,23.63
2018-11-02T17:42:45.810Z,22.50
2018-11-02T17:45:15.387Z,23.50
2018-11-02T17:47:44.797Z,19.80
2018-11-02T17:50:15.328Z,19.40
2018-11-02T17:52:44.669Z,21.87
2018-11-02T17:55:13.998Z,24.00
2018-11-02T17:57:43.290Z,22.07
2018-11-02T18:00:13.587Z,21.60
2018-11-02T18:02:42.946Z,22.80
2018-11-02T18:05:12.367Z,21.67
2018-11-02T18:07:41.687Z,22.57
2018-11-02T18:10:12.627Z,24.97
2018-11-02T18:12:42.107Z,24.80
2018-11-02T18:15:12.361Z,22.40
2018-11-02T18:17:41.842Z,20.33
2018-11-02T18:20:14.644Z,20.73
2018-11-02T18:22:44.024Z,20.43
2018-11-02T18:25:13.301Z,21.53
2018-11-02T18:27:43.122Z,20.97
2018-11-02T18:30:12.983Z,22.07
2018-11-02T18:32:42.343Z,26.97
2018-11-02T18:35:11.900Z,24.30
2018-11-02T18:37:42.005Z,21.33
2018-11-02T18:40:13.163Z,21.40
2018-11-02T18:42:43.000Z,22.27
2018-11-02T18:45:13.765Z,23.73
2018-11-02T18:47:43.534Z,25.10
2018-11-02T18:50:14.314Z,23.17
2018-11-02T18:52:44.079Z,25.67
2018-11-02T18:55:13.376Z,23.33
2018-11-02T18:57:42.700Z,23.20
2018-11-02T19:00:13.090Z,23.53
2018-11-02T19:02:42.361Z,24.23
2018-11-02T19:05:18.837Z,22.47
2018-11-02T19:07:48.135Z,25.97
2018-11-02T19:10:17.580Z,22.37
2018-11-02T19:12:47.001Z,22.97
2018-11-02T19:15:18.029Z,22.17
2018-11-02T19:17:47.364Z,23.50
2018-11-02T19:20:16.971Z,24.37
2018-11-02T19:22:46.242Z,21.87
2018-11-02T19:25:16.160Z,23.73
2018-11-02T19:27:46.232Z,22.57
2018-11-02T19:30:15.923Z,23.17
2018-11-02T19:32:45.369Z,21.70
2018-11-02T19:35:15.065Z,26.87
2018-11-02T19:37:44.359Z,25.50
2018-11-02T19:40:14.537Z,23.00
2018-11-02T19:42:44.048Z,21.30
2018-11-02T19:45:13.999Z,22.60
2018-11-02T19:47:48.656Z,22.43
2018-11-02T19:50:18.753Z,20.00
2018-11-02T19:52:48.031Z,24.57
2018-11-02T19:55:17.436Z,22.47
2018-11-02T19:57:47.222Z,24.67
2018-11-02T20:00:17.071Z,23.70
2018-11-02T20:02:46.408Z,18.90
2018-11-02T20:05:18.219Z,18.97
2018-11-02T20:07:47.579Z,21.03
2018-11-02T20:10:17.610Z,21.97
2018-11-02T20:12:47.658Z,20.80
2018-11-02T20:15:17.473Z,22.60
2018-11-02T20:17:47.011Z,22.13
2018-11-02T20:20:16.913Z,19.77
2018-11-02T20:22:46.775Z,21.50
2018-11-02T20:25:17.113Z,22.17
2018-11-02T20:27:46.472Z,21.20
2018-11-02T20:30:17.175Z,21.37
2018-11-02T20:32:46.634Z,22.13
2018-11-02T20:35:16.073Z,23.37
2018-11-02T20:37:45.333Z,22.40
2018-11-02T20:40:16.879Z,22.73
2018-11-02T20:42:46.533Z,22.97
2018-11-02T20:45:16.255Z,23.57
2018-11-02T20:47:48.712Z,25.10
2018-11-02T20:50:18.094Z,27.10
2018-11-02T20:52:47.753Z,24.77
2018-11-02T20:55:17.534Z,25.80
2018-11-02T20:57:46.871Z,22.53
2018-11-02T21:00:20.679Z,24.57
2018-11-02T21:02:50.191Z,24.53
2018-11-02T21:05:20.034Z,26.83
2018-11-02T21:07:50.390Z,26.60
2018-11-02T21:10:20.314Z,25.63
2018-11-02T21:12:50.613Z,25.70
2018-11-02T21:15:21.136Z,26.87
2018-11-02T21:17:50.835Z,25.77
2018-11-02T21:20:21.636Z,30.30
2018-11-02T21:22:50.932Z,27.17
2018-11-02T21:25:20.513Z,29.43
2018-11-02T21:27:49.852Z,25.60
2018-11-02T21:30:21.412Z,25.70
2018-11-02T21:32:51.252Z,25.43
2018-11-02T21:35:21.152Z,28.70
2018-11-02T21:37:50.694Z,25.83
2018-11-02T21:40:21.352Z,25.77
2018-11-02T21:42:50.673Z,26.27
2018-11-02T21:45:21.072Z,26.90
2018-11-02T21:47:50.473Z,27.63
2018-11-02T21:50:19.913Z,25.37
2018-11-02T21:52:49.231Z,25.97
2018-11-02T21:55:18.912Z,30.13
2018-11-02T21:57:48.172Z,25.80
2018-11-02T22:00:20.032Z,25.30
2018-11-02T22:02:49.312Z,24.03
2018-11-02T22:05:18.535Z,26.43
2018-11-02T22:07:48.712Z,24.90
2018-11-02T22:10:18.253Z,25.87
2018-11-02T22:12:47.469Z,26.07
2018-11-02T22:15:16.773Z,26.03
2018-11-02T22:17:46.084Z,25.00
2018-11-02T22:20:16.019Z,27.33
2018-11-02T22:22:45.404Z,25.23
2018-11-02T22:25:15.343Z,26.93
2018-11-02T22:27:44.663Z,26.67
2018-11-02T22:30:15.224Z,27.03
2018-11-02T22:32:44.963Z,27.53
2018-11-02T22:35:14.943Z,27.30
2018-11-02T22:37:44.603Z,29.53
2018-11-02T22:40:14.219Z,27.90
2018-11-02T22:42:44.003Z,29.23
2018-11-02T22:45:14.200Z,30.50
2018-11-02T22:47:48.038Z,28.47
2018-11-02T22:50:17.415Z,32.53
2018-11-02T22:52:46.659Z,30.27
2018-11-02T22:55:16.021Z,30.40
2018-11-02T22:57:45.739Z,29.27
2018-11-02T23:00:17.478Z,29.83
2018-11-02T23:02:47.495Z,30.67
2018-11-02T23:05:16.919Z,35.27
2018-11-02T23:07:46.335Z,31.90
2018-11-02T23:10:15.641Z,31.90
2018-11-02T23:12:44.959Z,34.87
2018-11-02T23:15:14.318Z,33.60
2018-11-02T23:17:43.649Z,34.17
2018-11-02T23:20:14.200Z,34.03
2018-11-02T23:22:43.838Z,34.30
2018-11-02T23:25:13.238Z,33.33
2018-11-02T23:27:43.778Z,34.70
2018-11-02T23:30:13.214Z,34.80
2018-11-02T23:32:42.818Z,37.77
2018-11-02T23:35:12.094Z,36.57
2018-11-02T23:37:41.499Z,35.27
2018-11-02T23:40:11.900Z,35.30
2018-11-02T23:42:41.379Z,34.67
2018-11-02T23:45:11.440Z,36.73
2018-11-02T23:47:45.658Z,36.77
2018-11-02T23:50:14.942Z,34.67
2018-11-02T23:52:44.208Z,35.03
2018-11-02T23:55:13.685Z,36.67
2018-11-02T23:57:42.994Z,41.67
